Aérodrome :
LOGIN :

S'inscrire | Disclaimer

   EN    FR    IT 

 










Légende :    VFR   VFR Marginal   IFR   IFR Intensif   IFR Très Intensif
Visi : 
Plafond : 
>= 8 km
>= 3000ft
5 à 8 km
1000 à 3000 ft
1500m à 5 km
500 à 1000 ft
800 à 1500m
200 à 500 ft
< 800m
< 200 ft
Symboles :   Orages  Brouillard  Fortes neiges  Fortes précipitations  Vent > 20 kt
SIGMETs :   Divers  Orages  Givrage  Turbulence  Onde Orograph.  Cendres Volcan.






- Altitude de l'aérodrome : 1276 ft
- Code IATA : STR


EDDS - Stuttgart

DERNIER METAR :
  • 221450Z 33017KT 9999 -RA FEW033 SCT044 06/04 Q0993 NOSIG

METARs EXPIRÉS :
  • 221420Z 23005KT 140V280 9999 FEW028 SCT049 13/03 Q0992 NOSIG
  • 221350Z 21005KT 170V240 9999 FEW028 SCT047 13/02 Q0992 NOSIG
  • 221320Z 21006KT 180V250 9999 FEW028 BKN047 13/03 Q0992 NOSIG
  • 221250Z 21007KT 180V250 9999 FEW028 13/03 Q0993 NOSIG
  • 221220Z 21007KT 180V260 9999 FEW028 13/03 Q0993 NOSIG

TAF TAF EDDS
Valide du 22 à 12h jusqu'au 23 à 12h UTC


221100Z 2212/2312 20007KT CAVOK
BECMG 2214/2216 30005KT
BECMG 2218/2220 31010KT
TEMPO 2218/2306 4000 RADZ BKN006
PROB30
TEMPO 2222/2304 1500 SN OVC002
BECMG 2305/2307 22005KT
TEMPO 2306/2309 BKN012



MET'MAP, la Météo Aéronautique d'un coup d'oeil ! - Copyright ORBIFLY Décembre 2007 - Disclaimer

ORBIFLY MET'MAP TEAM :

Programmation & Développement : Alexandra Zaïnal
Sur une idée originale de : Baudouin d'Aumeries
Assistance à la programmation : Marc-Olivier Méhu
Soutien technique & logistique : Manuel Goepfert

Contact : metmap@orbifly.com




SOURCES & CREDITS :

   NOAA